createdAt,value
2018-12-30T00:04:36.420Z,38.37
2018-12-30T00:10:31.417Z,38.6
2018-12-30T00:16:26.414Z,34.63
2018-12-30T00:22:21.451Z,34.85
2018-12-30T00:28:16.437Z,32.78
2018-12-30T00:34:11.443Z,34.51
2018-12-30T00:40:06.424Z,33.25
2018-12-30T00:46:01.542Z,33.6
2018-12-30T00:51:56.417Z,31.49
2018-12-30T00:57:51.420Z,31.84
2018-12-30T01:03:47.145Z,30.23
2018-12-30T01:09:41.451Z,28.24
2018-12-30T01:15:36.436Z,27.47
2018-12-30T01:21:31.458Z,29.45
2018-12-30T01:27:26.459Z,28.53
2018-12-30T01:33:21.449Z,30.11
2018-12-30T01:39:16.469Z,31.2
2018-12-30T01:45:11.481Z,32.13
2018-12-30T01:51:06.485Z,31.28
2018-12-30T01:57:01.455Z,31.77
2018-12-30T02:02:56.467Z,30.87
2018-12-30T02:08:51.457Z,29.56
2018-12-30T02:14:46.470Z,30.37
2018-12-30T02:20:41.506Z,29.83
2018-12-30T02:26:36.493Z,28.7
2018-12-30T02:32:31.464Z,25.87
2018-12-30T02:38:26.480Z,27.19
2018-12-30T02:44:21.491Z,25.48
2018-12-30T02:50:16.473Z,27.57
2018-12-30T02:56:11.538Z,28.36
2018-12-30T03:02:06.514Z,29.65
2018-12-30T03:08:01.488Z,29.59
2018-12-30T03:13:56.484Z,30.83
2018-12-30T03:19:51.509Z,29.76
2018-12-30T03:25:46.531Z,29.27
2018-12-30T03:31:41.537Z,28.85
2018-12-30T03:37:36.539Z,30.51
2018-12-30T03:43:31.519Z,30.41
2018-12-30T03:49:26.505Z,31.78
2018-12-30T03:55:21.526Z,31.07
2018-12-30T04:01:16.501Z,31.14
2018-12-30T04:07:11.541Z,31.33
2018-12-30T04:13:06.531Z,29.92
2018-12-30T04:19:01.551Z,29.11
2018-12-30T04:24:56.533Z,30.99
2018-12-30T04:30:51.588Z,29.62
2018-12-30T04:36:46.546Z,28.39
2018-12-30T04:42:41.528Z,29.34
2018-12-30T04:48:36.540Z,29.42
2018-12-30T04:54:31.540Z,29.33
2018-12-30T05:00:26.555Z,30.06
2018-12-30T05:06:21.644Z,29.05
2018-12-30T05:12:16.590Z,29.11
2018-12-30T05:18:11.573Z,29.63
2018-12-30T05:24:06.600Z,28.1
2018-12-30T05:30:01.556Z,27.98
2018-12-30T05:35:56.558Z,27.37
2018-12-30T05:41:51.577Z,27.62
2018-12-30T05:47:46.575Z,28.75
2018-12-30T05:53:41.578Z,27.84
2018-12-30T05:59:36.582Z,25.99
2018-12-30T06:05:31.573Z,29.43
2018-12-30T06:11:26.588Z,27.32
2018-12-30T06:17:21.595Z,27.75
2018-12-30T06:23:16.619Z,27.67
2018-12-30T06:29:11.578Z,26.94
2018-12-30T06:35:06.643Z,27.09
2018-12-30T06:41:01.613Z,24.63
2018-12-30T06:46:56.613Z,27.4
2018-12-30T06:52:57.477Z,26.5
2018-12-30T06:58:46.646Z,30.36
2018-12-30T07:04:41.674Z,28.37
2018-12-30T07:10:36.595Z,26.92
2018-12-30T07:16:31.613Z,26.59
2018-12-30T07:22:26.609Z,27.12
2018-12-30T07:28:21.631Z,27.09
2018-12-30T07:34:16.640Z,27.99
2018-12-30T07:40:11.622Z,27.28
2018-12-30T07:46:06.646Z,28.72
2018-12-30T07:52:01.634Z,28.18
2018-12-30T07:57:56.660Z,30.54
2018-12-30T08:03:51.677Z,29.42
2018-12-30T08:09:46.648Z,32.16
2018-12-30T08:15:41.648Z,29.58
2018-12-30T08:21:36.645Z,32.04
2018-12-30T08:27:31.692Z,29.42
2018-12-30T08:33:26.676Z,26.82
2018-12-30T08:39:21.672Z,25.73
2018-12-30T08:45:16.679Z,24.73
2018-12-30T08:51:11.658Z,26.96
2018-12-30T08:57:06.686Z,29.15
2018-12-30T09:03:01.667Z,28.22
2018-12-30T09:08:56.671Z,27.39
2018-12-30T09:14:51.669Z,27.34
2018-12-30T09:20:46.711Z,29.72
2018-12-30T09:26:41.667Z,27.79
2018-12-30T09:32:36.718Z,27.93
2018-12-30T09:38:31.692Z,27.99
2018-12-30T09:44:26.708Z,25.8
2018-12-30T09:50:21.745Z,27.54
2018-12-30T09:56:16.717Z,29.5
2018-12-30T10:02:11.732Z,27.89
2018-12-30T10:08:06.733Z,27.48
2018-12-30T10:14:01.739Z,25.35
2018-12-30T10:19:56.717Z,28.2
2018-12-30T10:25:51.705Z,27.66
2018-12-30T10:31:46.706Z,26.76
2018-12-30T10:37:41.713Z,30.27
2018-12-30T10:43:36.726Z,33.32
2018-12-30T10:49:31.776Z,27.41
2018-12-30T10:55:26.767Z,23.81
2018-12-30T11:01:21.729Z,21.53
2018-12-30T11:07:16.732Z,23.11
2018-12-30T11:13:11.763Z,23.79
2018-12-30T11:19:06.736Z,24.18
2018-12-30T11:25:01.848Z,20.61
2018-12-30T11:30:56.802Z,24.84
2018-12-30T11:36:51.753Z,20.19
2018-12-30T11:42:46.741Z,21.28
2018-12-30T11:48:41.764Z,19.33
2018-12-30T11:54:36.788Z,19.77
2018-12-30T12:00:31.787Z,19.15
2018-12-30T12:06:26.794Z,16.21
2018-12-30T12:12:21.765Z,15.86
2018-12-30T12:18:16.771Z,16.82
2018-12-30T12:24:11.788Z,16.32
2018-12-30T12:30:06.785Z,16.79
2018-12-30T12:36:01.790Z,14.79
2018-12-30T12:41:56.785Z,13.23
2018-12-30T12:47:51.802Z,12.24
2018-12-30T12:53:46.812Z,12.45
2018-12-30T12:59:41.818Z,13.33
2018-12-30T13:05:36.817Z,12.98
2018-12-30T13:11:31.837Z,13.57
2018-12-30T13:17:26.879Z,12.9
2018-12-30T13:23:21.856Z,14.87
2018-12-30T13:29:16.837Z,17.42
2018-12-30T13:35:11.819Z,14.74
2018-12-30T13:41:06.849Z,18.33
2018-12-30T13:47:01.994Z,17.4
2018-12-30T13:52:56.857Z,18.25
2018-12-30T13:58:51.860Z,17
2018-12-30T14:04:46.844Z,19.86
2018-12-30T14:10:41.831Z,17.86
2018-12-30T14:16:36.866Z,18.46
2018-12-30T14:22:31.875Z,18.61
2018-12-30T14:28:26.919Z,18.86
2018-12-30T14:34:21.862Z,19.22
2018-12-30T14:40:16.892Z,19.97
2018-12-30T14:46:11.864Z,20.92
2018-12-30T14:52:06.897Z,25.23
2018-12-30T14:58:01.871Z,26.98
2018-12-30T15:03:56.943Z,26.38
2018-12-30T15:09:51.888Z,26.63
2018-12-30T15:15:46.912Z,25.78
2018-12-30T15:21:41.933Z,24.38
2018-12-30T15:27:36.898Z,25.28
2018-12-30T15:33:31.967Z,25.7
2018-12-30T15:39:26.994Z,21.38
2018-12-30T15:45:21.942Z,23.73
2018-12-30T15:51:16.908Z,24.09
2018-12-30T15:57:11.946Z,21.44
2018-12-30T16:03:06.930Z,26.54
2018-12-30T16:09:01.980Z,23.76
2018-12-30T16:14:56.940Z,20.53
2018-12-30T16:20:51.953Z,13.56
2018-12-30T16:26:46.953Z,11.49
2018-12-30T16:32:41.950Z,29.74
2018-12-30T16:38:36.944Z,60.37
2018-12-30T16:44:31.935Z,21.53
2018-12-30T16:50:26.966Z,23.73
2018-12-30T16:56:21.955Z,17.31
2018-12-30T17:02:16.978Z,20.12
2018-12-30T17:08:11.960Z,15.24
2018-12-30T17:14:06.997Z,12.04
2018-12-30T17:20:01.970Z,8.75
2018-12-30T17:25:56.995Z,27.32
2018-12-30T17:31:51.981Z,12.13
2018-12-30T17:37:46.998Z,19.8
2018-12-30T17:43:42.032Z,10.2
2018-12-30T17:49:37.002Z,26
2018-12-30T17:55:31.989Z,17.23
2018-12-30T18:01:27.019Z,7.42
2018-12-30T18:07:22.032Z,10.83
2018-12-30T18:13:17.001Z,8.84
2018-12-30T18:19:11.997Z,15.57
2018-12-30T18:25:07.025Z,25.27
2018-12-30T18:31:02.015Z,27.6
2018-12-30T18:36:57.046Z,77.41
2018-12-30T18:42:52.014Z,106.54
2018-12-30T18:48:47.007Z,29.35
2018-12-30T18:54:42.017Z,32.95
2018-12-30T19:00:37.076Z,24.78
2018-12-30T19:06:32.011Z,25.18
2018-12-30T19:12:27.074Z,19.6
2018-12-30T19:18:22.026Z,17.58
2018-12-30T19:24:17.030Z,15.96
2018-12-30T19:30:12.084Z,19.45
2018-12-30T19:36:07.059Z,17.54
2018-12-30T19:42:02.031Z,14.86
2018-12-30T19:47:57.077Z,21.82
2018-12-30T19:53:52.043Z,22.9
2018-12-30T19:59:47.065Z,17.36
2018-12-30T20:05:42.064Z,51.56
2018-12-30T20:11:37.076Z,23.71
2018-12-30T20:17:32.061Z,19.22
2018-12-30T20:23:27.073Z,27.01
2018-12-30T20:29:22.068Z,21.97
2018-12-30T20:35:17.102Z,16.44
2018-12-30T20:41:12.088Z,17.05
2018-12-30T20:47:07.121Z,17.44
2018-12-30T20:53:02.078Z,24.89
2018-12-30T20:58:57.077Z,22.77
2018-12-30T21:04:52.079Z,20.56
2018-12-30T21:10:47.108Z,20.27
2018-12-30T21:16:42.079Z,26.23
2018-12-30T21:22:37.156Z,22.07
2018-12-30T21:28:32.112Z,21.89
2018-12-30T21:34:27.089Z,16.43
2018-12-30T21:40:22.137Z,18.86
2018-12-30T21:46:17.126Z,20.24
2018-12-30T21:52:12.092Z,18.38
2018-12-30T21:58:07.108Z,14.12
2018-12-30T22:04:02.123Z,15.82
2018-12-30T22:09:57.110Z,14.88
2018-12-30T22:15:52.142Z,11.41
2018-12-30T22:21:47.121Z,12.29
2018-12-30T22:27:42.117Z,12.56
2018-12-30T22:33:37.140Z,18.37
2018-12-30T22:39:32.127Z,19.64
2018-12-30T22:45:27.171Z,11.87
2018-12-30T22:51:22.138Z,12.02
2018-12-30T22:57:17.129Z,12.66
2018-12-30T23:03:12.155Z,13.66
2018-12-30T23:09:07.160Z,12.05
2018-12-30T23:15:02.158Z,9.75
2018-12-30T23:20:57.138Z,12.99
2018-12-30T23:26:52.140Z,12.76
2018-12-30T23:32:47.142Z,22
2018-12-30T23:38:42.161Z,9.07
2018-12-30T23:44:37.183Z,16.04
2018-12-30T23:50:32.194Z,10.3
2018-12-30T23:56:27.173Z,9.49
